sensor_id;sensor_type;location;lat;lon;timestamp;pressure;altitude;pressure_sealevel;temperature;humidity
12182;BME280;6154;51.550;12.138;2024-03-07T00:01:26;101467.97;;;10.86;62.33
12182;BME280;6154;51.550;12.138;2024-03-07T00:03:56;101466.81;;;10.93;61.95
12182;BME280;6154;51.550;12.138;2024-03-07T00:06:24;101463.53;;;10.87;62.47
12182;BME280;6154;51.550;12.138;2024-03-07T00:08:51;101469.56;;;10.90;62.54
12182;BME280;6154;51.550;12.138;2024-03-07T00:11:20;101467.63;;;10.96;62.27
12182;BME280;6154;51.550;12.138;2024-03-07T00:13:48;101459.41;;;11.02;61.61
12182;BME280;6154;51.550;12.138;2024-03-07T00:16:16;101465.56;;;11.02;61.54
12182;BME280;6154;51.550;12.138;2024-03-07T00:18:44;101464.69;;;11.02;61.36
12182;BME280;6154;51.550;12.138;2024-03-07T00:21:13;101466.56;;;11.00;61.33
12182;BME280;6154;51.550;12.138;2024-03-07T00:23:41;101469.41;;;10.95;61.86
12182;BME280;6154;51.550;12.138;2024-03-07T00:26:10;101469.47;;;10.93;62.32
12182;BME280;6154;51.550;12.138;2024-03-07T00:28:38;101461.47;;;10.95;62.52
12182;BME280;6154;51.550;12.138;2024-03-07T00:31:06;101468.47;;;10.96;62.89
12182;BME280;6154;51.550;12.138;2024-03-07T00:33:35;101472.34;;;10.87;63.88
12182;BME280;6154;51.550;12.138;2024-03-07T00:36:25;101464.59;;;10.83;64.26
12182;BME280;6154;51.550;12.138;2024-03-07T00:38:53;101464.09;;;10.73;64.79
12182;BME280;6154;51.550;12.138;2024-03-07T00:41:21;101454.09;;;10.80;64.56
12182;BME280;6154;51.550;12.138;2024-03-07T00:43:48;101461.97;;;10.81;64.61
12182;BME280;6154;51.550;12.138;2024-03-07T00:46:17;101463.09;;;10.76;64.98
12182;BME280;6154;51.550;12.138;2024-03-07T00:48:45;101456.75;;;10.80;65.05
12182;BME280;6154;51.550;12.138;2024-03-07T00:51:13;101459.53;;;10.77;65.40
12182;BME280;6154;51.550;12.138;2024-03-07T00:53:44;101456.69;;;10.81;65.14
12182;BME280;6154;51.550;12.138;2024-03-07T00:56:11;101451.59;;;10.77;65.26
12182;BME280;6154;51.550;12.138;2024-03-07T00:58:39;101444.50;;;10.77;65.42
12182;BME280;6154;51.550;12.138;2024-03-07T01:01:08;101451.47;;;10.80;65.16
12182;BME280;6154;51.550;12.138;2024-03-07T01:03:38;101455.91;;;10.79;65.48
12182;BME280;6154;51.550;12.138;2024-03-07T01:06:06;101447.16;;;10.77;65.44
12182;BME280;6154;51.550;12.138;2024-03-07T01:08:36;101443.16;;;10.89;64.67
12182;BME280;6154;51.550;12.138;2024-03-07T01:11:06;101441.00;;;10.99;64.08
12182;BME280;6154;51.550;12.138;2024-03-07T01:13:37;101443.00;;;10.93;64.05
12182;BME280;6154;51.550;12.138;2024-03-07T01:16:05;101441.16;;;10.72;64.66
12182;BME280;6154;51.550;12.138;2024-03-07T01:18:34;101448.88;;;10.78;64.54
12182;BME280;6154;51.550;12.138;2024-03-07T01:21:03;101440.56;;;10.87;64.20
12182;BME280;6154;51.550;12.138;2024-03-07T01:23:31;101434.53;;;10.84;64.37
12182;BME280;6154;51.550;12.138;2024-03-07T01:26:00;101439.50;;;10.91;64.12
12182;BME280;6154;51.550;12.138;2024-03-07T01:28:30;101443.78;;;10.96;63.85
12182;BME280;6154;51.550;12.138;2024-03-07T01:30:58;101435.62;;;11.00;63.42
12182;BME280;6154;51.550;12.138;2024-03-07T01:33:26;101441.31;;;10.91;63.92
12182;BME280;6154;51.550;12.138;2024-03-07T01:35:55;101435.16;;;10.90;64.05
12182;BME280;6154;51.550;12.138;2024-03-07T01:38:23;101434.41;;;10.87;64.36
12182;BME280;6154;51.550;12.138;2024-03-07T01:40:52;101439.00;;;10.82;64.56
12182;BME280;6154;51.550;12.138;2024-03-07T01:43:22;101428.97;;;10.68;65.36
12182;BME280;6154;51.550;12.138;2024-03-07T01:45:53;101433.84;;;10.79;65.19
12182;BME280;6154;51.550;12.138;2024-03-07T01:48:26;101433.84;;;10.79;65.15
12182;BME280;6154;51.550;12.138;2024-03-07T01:50:55;101430.84;;;10.66;66.16
12182;BME280;6154;51.550;12.138;2024-03-07T01:53:25;101429.78;;;10.70;65.92
12182;BME280;6154;51.550;12.138;2024-03-07T01:55:54;101425.47;;;10.68;66.13
12182;BME280;6154;51.550;12.138;2024-03-07T01:58:24;101434.41;;;10.65;66.62
12182;BME280;6154;51.550;12.138;2024-03-07T02:00:53;101429.91;;;10.67;66.43
12182;BME280;6154;51.550;12.138;2024-03-07T02:03:21;101429.22;;;10.62;67.01
12182;BME280;6154;51.550;12.138;2024-03-07T02:05:49;101426.63;;;10.60;66.96
12182;BME280;6154;51.550;12.138;2024-03-07T02:08:18;101430.03;;;10.64;66.85
12182;BME280;6154;51.550;12.138;2024-03-07T02:10:46;101426.56;;;10.62;67.00
12182;BME280;6154;51.550;12.138;2024-03-07T02:13:15;101424.69;;;10.65;66.72
12182;BME280;6154;51.550;12.138;2024-03-07T02:15:44;101421.97;;;10.67;66.78
12182;BME280;6154;51.550;12.138;2024-03-07T02:18:14;101419.63;;;10.81;65.79
12182;BME280;6154;51.550;12.138;2024-03-07T02:20:44;101417.81;;;10.83;65.48
12182;BME280;6154;51.550;12.138;2024-03-07T02:23:12;101423.97;;;10.84;65.76
12182;BME280;6154;51.550;12.138;2024-03-07T02:25:41;101412.50;;;10.83;66.21
12182;BME280;6154;51.550;12.138;2024-03-07T02:28:09;101416.94;;;10.83;66.71
12182;BME280;6154;51.550;12.138;2024-03-07T02:30:38;101414.22;;;10.84;66.33
12182;BME280;6154;51.550;12.138;2024-03-07T02:33:06;101411.50;;;10.86;66.51
12182;BME280;6154;51.550;12.138;2024-03-07T02:35:34;101409.78;;;10.85;66.64
12182;BME280;6154;51.550;12.138;2024-03-07T02:38:05;101407.22;;;10.83;67.25
12182;BME280;6154;51.550;12.138;2024-03-07T02:40:33;101403.94;;;10.77;68.12
12182;BME280;6154;51.550;12.138;2024-03-07T02:43:01;101408.88;;;10.64;69.05
12182;BME280;6154;51.550;12.138;2024-03-07T02:45:31;101413.22;;;10.65;69.27
12182;BME280;6154;51.550;12.138;2024-03-07T02:47:59;101410.22;;;10.52;70.02
12182;BME280;6154;51.550;12.138;2024-03-07T02:50:27;101410.37;;;10.48;70.65
12182;BME280;6154;51.550;12.138;2024-03-07T02:52:56;101410.50;;;10.45;71.02
12182;BME280;6154;51.550;12.138;2024-03-07T02:55:25;101407.09;;;10.41;71.41
12182;BME280;6154;51.550;12.138;2024-03-07T02:57:53;101407.28;;;10.36;71.60
12182;BME280;6154;51.550;12.138;2024-03-07T03:00:23;101399.66;;;10.51;70.67
12182;BME280;6154;51.550;12.138;2024-03-07T03:02:54;101405.94;;;10.48;71.10
12182;BME280;6154;51.550;12.138;2024-03-07T03:05:22;101400.66;;;10.48;70.41
12182;BME280;6154;51.550;12.138;2024-03-07T03:07:51;101398.50;;;10.58;70.18
12182;BME280;6154;51.550;12.138;2024-03-07T03:10:25;101397.16;;;10.70;69.54
12182;BME280;6154;51.550;12.138;2024-03-07T03:12:57;101400.59;;;10.72;69.49
12182;BME280;6154;51.550;12.138;2024-03-07T03:15:27;101400.44;;;10.76;69.22
12182;BME280;6154;51.550;12.138;2024-03-07T03:17:56;101404.09;;;10.72;69.51
12182;BME280;6154;51.550;12.138;2024-03-07T03:20:27;101397.16;;;10.70;70.02
12182;BME280;6154;51.550;12.138;2024-03-07T03:23:02;101396.97;;;10.74;69.49
12182;BME280;6154;51.550;12.138;2024-03-07T03:25:34;101403.44;;;10.67;70.50
12182;BME280;6154;51.550;12.138;2024-03-07T03:28:04;101393.78;;;10.66;70.51
12182;BME280;6154;51.550;12.138;2024-03-07T03:30:33;101397.28;;;10.67;70.39
12182;BME280;6154;51.550;12.138;2024-03-07T03:33:01;101398.28;;;10.64;70.61
12182;BME280;6154;51.550;12.138;2024-03-07T03:35:29;101397.56;;;10.59;71.38
12182;BME280;6154;51.550;12.138;2024-03-07T03:37:57;101398.34;;;10.62;71.30
12182;BME280;6154;51.550;12.138;2024-03-07T03:40:25;101398.44;;;10.59;71.68
12182;BME280;6154;51.550;12.138;2024-03-07T03:42:55;101401.94;;;10.60;71.64
12182;BME280;6154;51.550;12.138;2024-03-07T03:45:23;101395.69;;;10.62;71.44
12182;BME280;6154;51.550;12.138;2024-03-07T03:47:53;101394.00;;;10.60;72.09
12182;BME280;6154;51.550;12.138;2024-03-07T03:50:21;101394.06;;;10.58;72.17
12182;BME280;6154;51.550;12.138;2024-03-07T03:52:50;101390.75;;;10.53;72.72
12182;BME280;6154;51.550;12.138;2024-03-07T03:55:19;101393.44;;;10.52;73.25
12182;BME280;6154;51.550;12.138;2024-03-07T03:57:48;101399.44;;;10.57;72.80
12182;BME280;6154;51.550;12.138;2024-03-07T04:00:18;101396.09;;;10.52;73.50
12182;BME280;6154;51.550;12.138;2024-03-07T04:02:50;101394.94;;;10.59;73.32
12182;BME280;6154;51.550;12.138;2024-03-07T04:05:20;101392.16;;;10.62;72.85
12182;BME280;6154;51.550;12.138;2024-03-07T04:07:48;101388.47;;;10.66;72.61
12182;BME280;6154;51.550;12.138;2024-03-07T04:10:17;101394.62;;;10.67;72.76
12182;BME280;6154;51.550;12.138;2024-03-07T04:12:45;101389.34;;;10.67;72.57
12182;BME280;6154;51.550;12.138;2024-03-07T04:15:14;101389.47;;;10.63;72.93
12182;BME280;6154;51.550;12.138;2024-03-07T04:17:46;101394.00;;;10.60;73.18
12182;BME280;6154;51.550;12.138;2024-03-07T04:20:16;101385.28;;;10.58;73.52
12182;BME280;6154;51.550;12.138;2024-03-07T04:22:46;101391.28;;;10.61;73.37
12182;BME280;6154;51.550;12.138;2024-03-07T04:25:16;101390.34;;;10.64;73.30
12182;BME280;6154;51.550;12.138;2024-03-07T04:27:45;101391.19;;;10.64;73.48
12182;BME280;6154;51.550;12.138;2024-03-07T04:30:13;101385.75;;;10.68;73.31
12182;BME280;6154;51.550;12.138;2024-03-07T04:32:44;101384.84;;;10.69;73.33
12182;BME280;6154;51.550;12.138;2024-03-07T04:35:14;101386.63;;;10.68;73.37
12182;BME280;6154;51.550;12.138;2024-03-07T04:37:46;101381.97;;;10.75;72.80
12182;BME280;6154;51.550;12.138;2024-03-07T04:40:14;101380.97;;;10.77;72.49
12182;BME280;6154;51.550;12.138;2024-03-07T04:42:47;101377.69;;;10.71;73.42
12182;BME280;6154;51.550;12.138;2024-03-07T04:45:17;101383.25;;;10.86;72.24
12182;BME280;6154;51.550;12.138;2024-03-07T04:47:45;101380.34;;;10.92;71.37
12182;BME280;6154;51.550;12.138;2024-03-07T04:50:20;101378.50;;;10.94;71.31
12182;BME280;6154;51.550;12.138;2024-03-07T04:52:49;101389.47;;;10.85;71.89
12182;BME280;6154;51.550;12.138;2024-03-07T04:55:18;101383.00;;;10.92;71.53
12182;BME280;6154;51.550;12.138;2024-03-07T04:57:46;101385.66;;;10.92;71.82
12182;BME280;6154;51.550;12.138;2024-03-07T05:00:15;101387.41;;;10.92;71.51
12182;BME280;6154;51.550;12.138;2024-03-07T05:02:48;101382.81;;;10.97;70.83
12182;BME280;6154;51.550;12.138;2024-03-07T05:05:18;101380.09;;;10.99;70.53
12182;BME280;6154;51.550;12.138;2024-03-07T05:07:50;101386.09;;;11.02;69.99
12182;BME280;6154;51.550;12.138;2024-03-07T05:10:19;101389.87;;;10.97;70.42
12182;BME280;6154;51.550;12.138;2024-03-07T05:12:47;101388.72;;;11.04;69.85
12182;BME280;6154;51.550;12.138;2024-03-07T05:15:15;101399.41;;;11.01;69.84
12182;BME280;6154;51.550;12.138;2024-03-07T05:17:44;101399.31;;;11.04;69.46
12182;BME280;6154;51.550;12.138;2024-03-07T05:20:12;101396.84;;;10.99;69.86
12182;BME280;6154;51.550;12.138;2024-03-07T05:22:42;101408.12;;;11.04;69.36
12182;BME280;6154;51.550;12.138;2024-03-07T05:25:14;101403.84;;;11.00;69.43
12182;BME280;6154;51.550;12.138;2024-03-07T05:27:43;101400.34;;;11.00;69.44
12182;BME280;6154;51.550;12.138;2024-03-07T05:30:12;101407.06;;;10.64;70.78
12182;BME280;6154;51.550;12.138;2024-03-07T05:32:42;101405.84;;;10.95;69.37
12182;BME280;6154;51.550;12.138;2024-03-07T05:35:11;101413.03;;;10.91;69.52
12182;BME280;6154;51.550;12.138;2024-03-07T05:37:39;101403.63;;;10.84;69.75
12182;BME280;6154;51.550;12.138;2024-03-07T05:40:15;101400.19;;;10.82;69.47
12182;BME280;6154;51.550;12.138;2024-03-07T05:42:43;101399.19;;;10.85;68.87
12182;BME280;6154;51.550;12.138;2024-03-07T05:45:12;101408.53;;;10.72;69.40
12182;BME280;6154;51.550;12.138;2024-03-07T05:47:42;101415.31;;;10.79;68.82
12182;BME280;6154;51.550;12.138;2024-03-07T05:50:10;101416.37;;;10.75;68.53
12182;BME280;6154;51.550;12.138;2024-03-07T05:52:40;101419.09;;;10.73;68.20
12182;BME280;6154;51.550;12.138;2024-03-07T05:55:08;101411.31;;;10.69;68.23
12182;BME280;6154;51.550;12.138;2024-03-07T05:57:39;101421.66;;;10.53;68.82
12182;BME280;6154;51.550;12.138;2024-03-07T06:00:12;101415.44;;;10.54;68.01
12182;BME280;6154;51.550;12.138;2024-03-07T06:02:42;101427.97;;;10.49;67.92
12182;BME280;6154;51.550;12.138;2024-03-07T06:05:10;101425.59;;;10.41;67.97
12182;BME280;6154;51.550;12.138;2024-03-07T06:07:43;101432.88;;;10.36;68.01
12182;BME280;6154;51.550;12.138;2024-03-07T06:10:13;101426.94;;;10.29;68.22
12182;BME280;6154;51.550;12.138;2024-03-07T06:12:45;101429.87;;;10.22;68.23
12182;BME280;6154;51.550;12.138;2024-03-07T06:15:16;101431.22;;;10.08;68.71
12182;BME280;6154;51.550;12.138;2024-03-07T06:17:44;101433.87;;;10.08;68.29
12182;BME280;6154;51.550;12.138;2024-03-07T06:20:14;101427.06;;;10.01;68.47
12182;BME280;6154;51.550;12.138;2024-03-07T06:22:50;101445.75;;;9.97;68.43
12182;BME280;6154;51.550;12.138;2024-03-07T06:25:18;101444.88;;;9.96;68.47
12182;BME280;6154;51.550;12.138;2024-03-07T06:27:51;101440.47;;;9.97;68.52
12182;BME280;6154;51.550;12.138;2024-03-07T06:30:19;101436.78;;;10.01;68.29
12182;BME280;6154;51.550;12.138;2024-03-07T06:32:47;101443.69;;;10.05;68.14
12182;BME280;6154;51.550;12.138;2024-03-07T06:35:15;101448.66;;;10.14;68.03
12182;BME280;6154;51.550;12.138;2024-03-07T06:37:43;101451.03;;;10.22;68.30
12182;BME280;6154;51.550;12.138;2024-03-07T06:40:11;101447.44;;;10.24;68.42
12182;BME280;6154;51.550;12.138;2024-03-07T06:42:41;101450.81;;;10.28;68.01
12182;BME280;6154;51.550;12.138;2024-03-07T06:45:10;101454.97;;;10.35;67.55
12182;BME280;6154;51.550;12.138;2024-03-07T06:47:39;101452.22;;;10.13;67.69
12182;BME280;6154;51.550;12.138;2024-03-07T06:50:09;101464.91;;;10.28;67.30
12182;BME280;6154;51.550;12.138;2024-03-07T06:52:55;101458.75;;;10.28;67.25
12182;BME280;6154;51.550;12.138;2024-03-07T06:55:25;101466.53;;;10.32;67.36
12182;BME280;6154;51.550;12.138;2024-03-07T06:57:53;101468.06;;;10.38;67.28
12182;BME280;6154;51.550;12.138;2024-03-07T07:00:23;101471.09;;;10.51;66.93
12182;BME280;6154;51.550;12.138;2024-03-07T07:02:53;101476.97;;;10.59;66.69
12182;BME280;6154;51.550;12.138;2024-03-07T07:05:21;101472.25;;;10.67;66.31
12182;BME280;6154;51.550;12.138;2024-03-07T07:07:50;101476.84;;;10.62;66.71
12182;BME280;6154;51.550;12.138;2024-03-07T07:10:19;101477.69;;;10.64;66.50
12182;BME280;6154;51.550;12.138;2024-03-07T07:12:51;101482.16;;;10.62;66.60
12182;BME280;6154;51.550;12.138;2024-03-07T07:15:23;101483.03;;;10.62;67.16
12182;BME280;6154;51.550;12.138;2024-03-07T07:17:50;101480.87;;;10.72;67.08
12182;BME280;6154;51.550;12.138;2024-03-07T07:20:19;101476.84;;;10.85;66.53
12182;BME280;6154;51.550;12.138;2024-03-07T07:22:47;101475.19;;;10.83;65.78
12182;BME280;6154;51.550;12.138;2024-03-07T07:25:16;101483.44;;;10.75;65.83
12182;BME280;6154;51.550;12.138;2024-03-07T07:27:45;101482.16;;;10.85;65.53
12182;BME280;6154;51.550;12.138;2024-03-07T07:30:15;101479.91;;;10.75;65.74
12182;BME280;6154;51.550;12.138;2024-03-07T07:32:45;101471.28;;;10.91;65.54
12182;BME280;6154;51.550;12.138;2024-03-07T07:35:14;101473.47;;;11.04;64.14
12182;BME280;6154;51.550;12.138;2024-03-07T07:37:44;101476.56;;;11.15;64.29
12182;BME280;6154;51.550;12.138;2024-03-07T07:40:13;101473.91;;;10.93;60.94
12182;BME280;6154;51.550;12.138;2024-03-07T07:42:41;101477.41;;;11.15;61.02
12182;BME280;6154;51.550;12.138;2024-03-07T07:45:11;101483.84;;;11.30;61.45
12182;BME280;6154;51.550;12.138;2024-03-07T07:47:40;101478.31;;;11.36;60.34
12182;BME280;6154;51.550;12.138;2024-03-07T07:50:11;101477.25;;;11.40;58.65
12182;BME280;6154;51.550;12.138;2024-03-07T07:52:40;101473.44;;;11.68;59.36
12182;BME280;6154;51.550;12.138;2024-03-07T07:55:09;101473.97;;;11.56;58.35
12182;BME280;6154;51.550;12.138;2024-03-07T07:57:42;101472.12;;;11.58;57.63
12182;BME280;6154;51.550;12.138;2024-03-07T08:00:12;101475.84;;;11.74;58.10
12182;BME280;6154;51.550;12.138;2024-03-07T08:02:50;101466.56;;;11.64;57.00
12182;BME280;6154;51.550;12.138;2024-03-07T08:05:20;101479.94;;;11.61;56.85
12182;BME280;6154;51.550;12.138;2024-03-07T08:07:50;101471.03;;;11.62;57.05
12182;BME280;6154;51.550;12.138;2024-03-07T08:10:19;101467.53;;;11.83;57.05
12182;BME280;6154;51.550;12.138;2024-03-07T08:12:50;101465.84;;;11.80;56.14
12182;BME280;6154;51.550;12.138;2024-03-07T08:15:18;101476.66;;;11.96;55.93
12182;BME280;6154;51.550;12.138;2024-03-07T08:17:47;101470.19;;;12.03;56.61
12182;BME280;6154;51.550;12.138;2024-03-07T08:20:17;101472.84;;;12.03;55.12
12182;BME280;6154;51.550;12.138;2024-03-07T08:22:49;101468.63;;;11.98;55.45
12182;BME280;6154;51.550;12.138;2024-03-07T08:25:21;101474.75;;;12.00;54.83
12182;BME280;6154;51.550;12.138;2024-03-07T08:27:51;101472.53;;;12.09;55.10
12182;BME280;6154;51.550;12.138;2024-03-07T08:30:20;101475.72;;;12.18;54.73
12182;BME280;6154;51.550;12.138;2024-03-07T08:32:50;101471.09;;;12.23;54.32
12182;BME280;6154;51.550;12.138;2024-03-07T08:35:19;101473.97;;;12.37;54.37
12182;BME280;6154;51.550;12.138;2024-03-07T08:37:50;101466.44;;;12.47;55.36
12182;BME280;6154;51.550;12.138;2024-03-07T08:40:22;101472.53;;;12.49;53.70
12182;BME280;6154;51.550;12.138;2024-03-07T08:42:55;101473.97;;;12.56;54.00
12182;BME280;6154;51.550;12.138;2024-03-07T08:45:25;101468.38;;;12.62;53.45
12182;BME280;6154;51.550;12.138;2024-03-07T08:47:54;101464.88;;;12.43;51.61
12182;BME280;6154;51.550;12.138;2024-03-07T08:50:23;101466.06;;;12.35;50.90
12182;BME280;6154;51.550;12.138;2024-03-07T08:52:56;101469.44;;;12.39;52.17
12182;BME280;6154;51.550;12.138;2024-03-07T08:55:24;101467.44;;;12.44;52.79
12182;BME280;6154;51.550;12.138;2024-03-07T08:57:53;101477.75;;;12.50;52.69
12182;BME280;6154;51.550;12.138;2024-03-07T09:00:22;101483.94;;;12.70;52.62
12182;BME280;6154;51.550;12.138;2024-03-07T09:02:54;101481.72;;;12.60;51.46
12182;BME280;6154;51.550;12.138;2024-03-07T09:05:26;101479.00;;;12.81;52.52
12182;BME280;6154;51.550;12.138;2024-03-07T09:07:56;101474.03;;;12.92;51.40
12182;BME280;6154;51.550;12.138;2024-03-07T09:10:24;101479.06;;;12.79;49.80
12182;BME280;6154;51.550;12.138;2024-03-07T09:12:53;101475.38;;;13.01;52.52
12182;BME280;6154;51.550;12.138;2024-03-07T09:15:22;101469.00;;;13.23;51.41
12182;BME280;6154;51.550;12.138;2024-03-07T09:17:51;101460.25;;;13.39;51.66
12182;BME280;6154;51.550;12.138;2024-03-07T09:20:20;101465.53;;;13.21;50.45
12182;BME280;6154;51.550;12.138;2024-03-07T09:22:48;101462.22;;;13.16;49.15
12182;BME280;6154;51.550;12.138;2024-03-07T09:25:18;101460.34;;;13.18;50.30
12182;BME280;6154;51.550;12.138;2024-03-07T09:27:47;101462.16;;;13.18;51.45
12182;BME280;6154;51.550;12.138;2024-03-07T09:30:15;101459.53;;;12.99;50.24
12182;BME280;6154;51.550;12.138;2024-03-07T09:32:46;101462.09;;;13.01;49.63
12182;BME280;6154;51.550;12.138;2024-03-07T09:35:14;101467.13;;;13.26;49.63
12182;BME280;6154;51.550;12.138;2024-03-07T09:37:44;101458.78;;;13.33;48.67
12182;BME280;6154;51.550;12.138;2024-03-07T09:40:13;101464.81;;;13.54;50.88
12182;BME280;6154;51.550;12.138;2024-03-07T09:42:45;101460.16;;;13.40;50.51
12182;BME280;6154;51.550;12.138;2024-03-07T09:45:17;101461.97;;;13.40;49.87
12182;BME280;6154;51.550;12.138;2024-03-07T09:47:47;101456.97;;;13.51;49.13
12182;BME280;6154;51.550;12.138;2024-03-07T09:50:18;101454.94;;;13.56;50.67
12182;BME280;6154;51.550;12.138;2024-03-07T09:52:50;101450.25;;;13.78;50.40
12182;BME280;6154;51.550;12.138;2024-03-07T09:55:21;101451.13;;;14.12;51.30
12182;BME280;6154;51.550;12.138;2024-03-07T09:57:55;101450.03;;;14.32;50.17
12182;BME280;6154;51.550;12.138;2024-03-07T10:00:26;101452.88;;;14.13;47.84
12182;BME280;6154;51.550;12.138;2024-03-07T10:02:59;101452.47;;;14.36;50.27
12182;BME280;6154;51.550;12.138;2024-03-07T10:05:30;101453.22;;;14.56;50.28
12182;BME280;6154;51.550;12.138;2024-03-07T10:07:59;101452.34;;;14.22;46.75
12182;BME280;6154;51.550;12.138;2024-03-07T10:10:28;101459.34;;;13.74;47.65
12182;BME280;6154;51.550;12.138;2024-03-07T10:12:59;101455.09;;;13.70;49.43
12182;BME280;6154;51.550;12.138;2024-03-07T10:15:28;101462.69;;;13.61;49.27
12182;BME280;6154;51.550;12.138;2024-03-07T10:17:57;101461.19;;;13.90;49.68
12182;BME280;6154;51.550;12.138;2024-03-07T10:20:26;101456.50;;;13.77;49.18
12182;BME280;6154;51.550;12.138;2024-03-07T10:22:55;101451.50;;;13.54;49.02
12182;BME280;6154;51.550;12.138;2024-03-07T10:25:23;101449.41;;;13.43;49.59
12182;BME280;6154;51.550;12.138;2024-03-07T10:27:54;101449.84;;;13.34;50.41
12182;BME280;6154;51.550;12.138;2024-03-07T10:30:26;101448.44;;;13.27;49.94
12182;BME280;6154;51.550;12.138;2024-03-07T10:32:56;101445.06;;;13.23;50.56
12182;BME280;6154;51.550;12.138;2024-03-07T10:35:27;101457.34;;;13.07;48.93
12182;BME280;6154;51.550;12.138;2024-03-07T10:37:56;101452.53;;;13.15;50.36
12182;BME280;6154;51.550;12.138;2024-03-07T10:40:28;101450.72;;;13.52;48.41
12182;BME280;6154;51.550;12.138;2024-03-07T10:42:59;101444.91;;;13.61;48.85
12182;BME280;6154;51.550;12.138;2024-03-07T10:45:33;101443.34;;;13.40;47.49
12182;BME280;6154;51.550;12.138;2024-03-07T10:48:03;101445.56;;;13.13;46.91
12182;BME280;6154;51.550;12.138;2024-03-07T10:50:49;101442.97;;;13.11;48.04
12182;BME280;6154;51.550;12.138;2024-03-07T10:53:31;101439.53;;;13.09;47.85
12182;BME280;6154;51.550;12.138;2024-03-07T10:56:18;101433.94;;;13.15;47.48
12182;BME280;6154;51.550;12.138;2024-03-07T10:58:57;101429.44;;;13.35;46.86
12182;BME280;6154;51.550;12.138;2024-03-07T11:01:31;101431.50;;;12.92;47.58
12182;BME280;6154;51.550;12.138;2024-03-07T11:04:01;101418.28;;;13.09;49.25
12182;BME280;6154;51.550;12.138;2024-03-07T11:06:33;101428.91;;;13.09;47.65
12182;BME280;6154;51.550;12.138;2024-03-07T11:09:03;101425.53;;;13.06;48.80
12182;BME280;6154;51.550;12.138;2024-03-07T11:11:38;101424.06;;;13.54;50.09
12182;BME280;6154;51.550;12.138;2024-03-07T11:14:09;101424.28;;;13.49;49.25
12182;BME280;6154;51.550;12.138;2024-03-07T11:16:40;101418.22;;;13.63;48.14
12182;BME280;6154;51.550;12.138;2024-03-07T11:19:33;101421.78;;;13.63;48.51
12182;BME280;6154;51.550;12.138;2024-03-07T11:22:04;101420.97;;;13.78;46.33
12182;BME280;6154;51.550;12.138;2024-03-07T11:24:43;101418.22;;;13.97;48.80
12182;BME280;6154;51.550;12.138;2024-03-07T11:27:12;101407.72;;;13.94;49.29
12182;BME280;6154;51.550;12.138;2024-03-07T11:29:48;101406.97;;;13.75;50.16
12182;BME280;6154;51.550;12.138;2024-03-07T11:32:22;101409.72;;;13.73;47.47
12182;BME280;6154;51.550;12.138;2024-03-07T11:34:53;101408.31;;;13.49;49.08
12182;BME280;6154;51.550;12.138;2024-03-07T11:37:38;101401.53;;;13.43;48.45
12182;BME280;6154;51.550;12.138;2024-03-07T11:40:11;101398.94;;;13.42;46.85
12182;BME280;6154;51.550;12.138;2024-03-07T11:42:49;101407.84;;;13.41;49.07
12182;BME280;6154;51.550;12.138;2024-03-07T11:45:18;101406.19;;;13.21;48.41
12182;BME280;6154;51.550;12.138;2024-03-07T11:47:56;101401.16;;;13.34;49.30
12182;BME280;6154;51.550;12.138;2024-03-07T11:50:27;101412.13;;;12.90;47.10
12182;BME280;6154;51.550;12.138;2024-03-07T11:52:56;101400.78;;;13.22;50.27
12182;BME280;6154;51.550;12.138;2024-03-07T11:55:24;101400.59;;;13.27;49.56
12182;BME280;6154;51.550;12.138;2024-03-07T11:57:52;101389.94;;;13.27;49.59
12182;BME280;6154;51.550;12.138;2024-03-07T12:00:20;101393.09;;;13.35;49.28
12182;BME280;6154;51.550;12.138;2024-03-07T12:02:55;101392.69;;;13.26;48.81
12182;BME280;6154;51.550;12.138;2024-03-07T12:05:23;101393.31;;;13.31;47.40
12182;BME280;6154;51.550;12.138;2024-03-07T12:07:55;101385.41;;;13.29;48.35
12182;BME280;6154;51.550;12.138;2024-03-07T12:10:23;101389.00;;;13.45;48.15
12182;BME280;6154;51.550;12.138;2024-03-07T12:12:52;101389.09;;;13.27;48.65
12182;BME280;6154;51.550;12.138;2024-03-07T12:15:23;101390.25;;;13.38;49.22
12182;BME280;6154;51.550;12.138;2024-03-07T12:17:51;101391.84;;;13.25;48.84
12182;BME280;6154;51.550;12.138;2024-03-07T12:20:22;101389.78;;;13.30;49.03
12182;BME280;6154;51.550;12.138;2024-03-07T12:22:55;101387.09;;;13.13;48.47
12182;BME280;6154;51.550;12.138;2024-03-07T12:25:24;101389.25;;;13.23;50.14
12182;BME280;6154;51.550;12.138;2024-03-07T12:28:05;101387.50;;;13.22;48.86
12182;BME280;6154;51.550;12.138;2024-03-07T12:30:48;101386.44;;;13.27;48.48
12182;BME280;6154;51.550;12.138;2024-03-07T12:33:17;101388.06;;;13.29;47.58
12182;BME280;6154;51.550;12.138;2024-03-07T12:35:48;101392.22;;;13.35;49.13
12182;BME280;6154;51.550;12.138;2024-03-07T12:38:19;101386.88;;;13.52;49.12
12182;BME280;6154;51.550;12.138;2024-03-07T12:41:01;101378.56;;;13.75;50.98
12182;BME280;6154;51.550;12.138;2024-03-07T12:43:32;101377.09;;;14.03;47.78
12182;BME280;6154;51.550;12.138;2024-03-07T12:46:01;101374.97;;;14.41;50.19
12182;BME280;6154;51.550;12.138;2024-03-07T12:48:31;101376.06;;;14.54;49.49
12182;BME280;6154;51.550;12.138;2024-03-07T12:51:01;101373.63;;;14.81;49.50
12182;BME280;6154;51.550;12.138;2024-03-07T12:53:30;101370.84;;;14.99;49.18
12182;BME280;6154;51.550;12.138;2024-03-07T12:55:58;101363.34;;;15.05;48.71
12182;BME280;6154;51.550;12.138;2024-03-07T12:58:26;101363.81;;;14.82;45.69
12182;BME280;6154;51.550;12.138;2024-03-07T13:00:57;101366.13;;;15.04;47.03
12182;BME280;6154;51.550;12.138;2024-03-07T13:03:27;101359.19;;;14.85;48.10
12182;BME280;6154;51.550;12.138;2024-03-07T13:05:58;101356.38;;;15.03;48.82